الصفحة الرئيسية
METAR-TAF:

METAR-TAF

مطار :

مطار كام رانه الدولي

Cam Ranh, فيتنام

دائرة عرض: 11-59-53N, خط طول: 109-13-10E, ارتفاع: 12 متر

مراقبة الطقس الحالي

تاريخ ووقت الإصدار 52 دقيقة قبل الساعة 04:30UTC
ريح 8 عقدة من الشرق/الشمال الشرقي
درجة الحرارة 31°درجة مئوية
الرطوبة 63%
ضغط 1012 hPa
الرؤية 10 كم أو أكثر
غيوم قليلة على ارتفاع 1700 قدم

METAR: VVCR 130430Z 07008KT 9999 FEW017 31/23 Q1012 NOSIG

زمن: 12:22 (05:22 UTC)

توقعات

تاريخ ووقت الإصدار 6ساعات و 22 دقيقة قبل الساعة 23:00UTC
التوقعات صالحة من13 الساعة 00 UTC إلى 13 الساعة 24 UTC
ريح 4 عقدة من الشمال الغربي
الرؤية 10 كم أو أكثر
غيوم قليلة على ارتفاع 1500 قدم
أصبح
من 13 الساعة 02 UTC إلى 13 الساعة 03 UTC
ريح 12 عقدة من الشرق/الشمال الشرقي
أصبح
من 13 الساعة 13 UTC إلى 13 الساعة 14 UTC
ريح 5 عقدة من الشمال/الشمال الغربي

TAF: VVCR 122300Z 1300/1324 32004KT 9999 FEW015 BECMG 1302/1303 07012KT BECMG 1313/1314 34005KT

أرصاد الطقس والتوقعات من أكثر من 4000 مطار (تقارير الطقس للمطار METAR والتنبؤ بالطقس بالمطارTAF).

المحطات المتاحة هي النقط الصفراء والحمراء على الخريطة.

حرك المؤشر فوق النقطة لمعرفة اسم المحطة.

ثم انقر لمعرفة أرصاد وتوقعات الطقس.

لتغيير الخارطة: اضغط على الأزرار الخضراء مع رمز الصليب الأسود للتكبير. على الزر الأخضر مع شرطة للتصغير، أو على الأسهم الخضراء للخرائط المجاورة.


METAR-TAF: